Time,TemperatureF,DewpointF,PressureIn,WindDirection,WindDirectionDegrees,WindSpeedMPH,WindSpeedGustMPH,Humidity,HourlyPrecipIn,Conditions,Clouds,dailyrainin,SoftwareType,DateUTC
2014-01-17 00:04:00,45.0,41.6,28.91,SSE,153,0.0,0.0,88,0.00,,,0.00,WeatherDisplay:10.37,2014-01-17 00:04:00,
2014-01-17 00:09:00,45.0,41.6,28.91,SSE,152,0.0,0.0,88,0.00,,,0.00,WeatherDisplay:10.37,2014-01-17 00:09:00,
2014-01-17 00:14:00,45.0,41.6,28.91,SE,126,2.2,5.8,88,0.00,,,0.00,WeatherDisplay:10.37,2014-01-17 00:14:00,
2014-01-17 00:19:00,44.8,41.4,28.91,SSE,160,0.0,3.5,88,0.00,,,0.00,WeatherDisplay:10.37,2014-01-17 00:19:00,
2014-01-17 00:24:00,44.8,41.1,28.91,South,181,0.0,0.0,87,0.00,,,0.00,WeatherDisplay:10.37,2014-01-17 00:24:00,
2014-01-17 00:29:00,44.8,41.1,28.91,SE,145,0.0,0.0,87,0.00,,,0.00,WeatherDisplay:10.37,2014-01-17 00:29:00,
2014-01-17 00:34:00,44.8,41.1,28.91,SE,129,0.0,0.0,87,0.00,,,0.00,WeatherDisplay:10.37,2014-01-17 00:34:00,
2014-01-17 00:39:00,45.0,41.3,28.91,SE,143,0.0,0.0,87,0.00,,,0.00,WeatherDisplay:10.37,2014-01-17 00:39:00,
2014-01-17 00:44:00,45.0,41.3,28.91,SE,125,0.0,0.0,87,0.00,,,0.00,WeatherDisplay:10.37,2014-01-17 00:44:00,
2014-01-17 00:49:00,45.0,41.3,28.91,South,177,0.0,2.3,87,0.00,,,0.00,WeatherDisplay:10.37,2014-01-17 00:49:00,
2014-01-17 00:54:00,45.0,41.3,28.91,SSE,158,0.0,2.3,87,0.00,,,0.00,WeatherDisplay:10.37,2014-01-17 00:54:00,
2014-01-17 00:59:00,45.0,41.3,28.91,ESE,108,0.0,0.0,87,0.00,,,0.00,WeatherDisplay:10.37,2014-01-17 00:59:00,
2014-01-17 01:04:00,45.0,41.0,28.91,ESE,117,2.2,6.9,86,0.00,,,0.00,WeatherDisplay:10.37,2014-01-17 01:04:00,
2014-01-17 01:09:00,45.0,41.0,28.91,SE,124,0.0,0.0,86,0.00,,,0.00,WeatherDisplay:10.37,2014-01-17 01:09:00,
2014-01-17 01:14:00,45.0,41.0,28.91,SSE,147,0.0,13.2,86,0.00,,,0.00,WeatherDisplay:10.37,2014-01-17 01:14:00,
2014-01-17 01:19:00,45.0,41.0,28.91,SSW,210,6.3,8.1,86,0.00,,,0.00,WeatherDisplay:10.37,2014-01-17 01:19:00,
2014-01-17 01:24:00,45.0,41.0,28.91,SSE,162,2.7,6.9,86,0.00,,,0.00,WeatherDisplay:10.37,2014-01-17 01:24:00,
2014-01-17 01:29:00,44.8,40.8,28.91,South,169,0.0,0.0,86,0.00,,,0.00,WeatherDisplay:10.37,2014-01-17 01:29:00,
2014-01-17 01:34:00,44.8,40.8,28.91,SSE,162,5.8,8.1,86,0.00,,,0.00,WeatherDisplay:10.37,2014-01-17 01:34:00,
2014-01-17 01:39:00,44.8,40.8,28.91,SE,141,0.0,5.8,86,0.00,,,0.00,WeatherDisplay:10.37,2014-01-17 01:39:00,
2014-01-17 01:44:00,44.8,40.8,28.91,SSE,157,0.0,4.6,86,0.00,,,0.00,WeatherDisplay:10.37,2014-01-17 01:44:00,
2014-01-17 01:49:00,44.8,40.8,28.91,SE,128,3.6,6.3,86,0.00,,,0.00,WeatherDisplay:10.37,2014-01-17 01:49:00,
2014-01-17 01:54:00,44.8,40.8,28.91,SSE,159,3.1,4.0,86,0.00,,,0.00,WeatherDisplay:10.37,2014-01-17 01:54:00,
2014-01-17 01:59:00,44.8,40.8,28.91,SSE,168,5.8,8.3,86,0.00,,,0.00,WeatherDisplay:10.37,2014-01-17 01:59:00,
2014-01-17 02:04:00,44.8,40.8,28.91,South,181,6.3,8.1,86,0.00,,,0.00,WeatherDisplay:10.37,2014-01-17 02:04:00,
2014-01-17 02:09:00,44.8,40.8,28.91,SSE,165,5.8,6.9,86,0.00,,,0.00,WeatherDisplay:10.37,2014-01-17 02:09:00,
2014-01-17 02:14:00,44.8,40.8,28.91,SE,128,4.0,8.0,86,0.00,,,0.00,WeatherDisplay:10.37,2014-01-17 02:14:00,
2014-01-17 02:19:00,44.8,41.1,28.91,SSE,156,3.1,5.8,87,0.00,,,0.00,WeatherDisplay:10.37,2014-01-17 02:19:00,
2014-01-17 02:24:00,44.6,41.0,28.91,SSE,168,4.9,6.9,87,0.00,,,0.00,WeatherDisplay:10.37,2014-01-17 02:24:00,
2014-01-17 02:29:00,44.6,41.0,28.91,South,175,4.9,8.1,87,0.00,,,0.00,WeatherDisplay:10.37,2014-01-17 02:29:00,
2014-01-17 02:34:00,44.6,41.0,28.91,South,178,5.4,5.8,87,0.00,,,0.00,WeatherDisplay:10.37,2014-01-17 02:34:00,
2014-01-17 02:39:00,44.6,41.0,28.91,South,181,3.6,5.8,87,0.00,,,0.00,WeatherDisplay:10.37,2014-01-17 02:39:00,
2014-01-17 02:44:00,44.6,41.0,28.91,South,179,4.5,8.3,87,0.00,,,0.00,WeatherDisplay:10.37,2014-01-17 02:44:00,
2014-01-17 02:49:00,44.6,41.0,28.91,SSE,163,6.7,8.1,87,0.00,,,0.00,WeatherDisplay:10.37,2014-01-17 02:49:00,
2014-01-17 02:54:00,44.6,41.0,28.91,SSE,150,6.3,8.1,87,0.00,,,0.00,WeatherDisplay:10.37,2014-01-17 02:54:00,
2014-01-17 02:59:00,44.6,41.0,28.91,SSE,164,5.4,6.3,87,0.00,,,0.00,WeatherDisplay:10.37,2014-01-17 02:59:00,
2014-01-17 03:04:00,44.6,41.0,28.91,SSE,154,5.4,8.1,87,0.00,,,0.00,WeatherDisplay:10.37,2014-01-17 03:04:00,
2014-01-17 03:09:00,44.6,41.0,28.91,South,186,5.8,9.2,87,0.00,,,0.00,WeatherDisplay:10.37,2014-01-17 03:09:00,
2014-01-17 03:14:00,44.6,41.0,28.91,South,179,3.6,4.6,87,0.00,,,0.00,WeatherDisplay:10.37,2014-01-17 03:14:00,
2014-01-17 03:19:00,44.4,40.8,28.91,SSE,165,4.9,8.1,87,0.00,,,0.00,WeatherDisplay:10.37,2014-01-17 03:19:00,
2014-01-17 03:24:00,44.4,40.8,28.91,SSE,167,5.4,8.1,87,0.00,,,0.00,WeatherDisplay:10.37,2014-01-17 03:24:00,
2014-01-17 03:29:00,44.4,40.8,28.91,SSW,197,5.4,6.9,87,0.00,,,0.00,WeatherDisplay:10.37,2014-01-17 03:29:00,
2014-01-17 03:34:00,44.4,40.8,28.91,South,186,5.4,8.1,87,0.00,,,0.00,WeatherDisplay:10.37,2014-01-17 03:34:00,
2014-01-17 03:39:00,44.4,40.8,28.91,SSW,201,6.7,8.1,87,0.00,,,0.00,WeatherDisplay:10.37,2014-01-17 03:39:00,
2014-01-17 03:44:00,44.4,40.8,28.91,SSE,162,3.6,5.8,87,0.00,,,0.00,WeatherDisplay:10.37,2014-01-17 03:44:00,
2014-01-17 03:49:00,44.4,40.8,28.91,SSW,198,4.9,5.8,87,0.00,,,0.00,WeatherDisplay:10.37,2014-01-17 03:49:00,
2014-01-17 03:54:00,44.2,40.6,28.91,South,175,7.6,9.2,87,0.00,,,0.00,WeatherDisplay:10.37,2014-01-17 03:54:00,
2014-01-17 03:59:00,44.2,40.9,28.91,South,183,4.0,6.9,88,0.00,,,0.00,WeatherDisplay:10.37,2014-01-17 03:59:00,
2014-01-17 04:04:00,44.1,40.7,28.91,SSW,202,4.9,8.3,88,0.00,,,0.00,WeatherDisplay:10.37,2014-01-17 04:04:00,
2014-01-17 04:09:00,44.1,40.7,28.91,South,182,4.0,5.8,88,0.00,,,0.00,WeatherDisplay:10.37,2014-01-17 04:09:00,
2014-01-17 04:14:00,44.1,41.0,28.91,South,172,4.0,5.8,89,0.00,,,0.00,WeatherDisplay:10.37,2014-01-17 04:14:00,
2014-01-17 04:19:00,43.9,41.1,28.91,South,188,7.2,9.2,90,0.00,,,0.00,WeatherDisplay:10.37,2014-01-17 04:19:00,
2014-01-17 04:24:00,43.7,41.0,28.91,South,176,6.3,10.1,90,0.00,,,0.00,WeatherDisplay:10.37,2014-01-17 04:24:00,
2014-01-17 04:29:00,43.7,41.2,28.91,SSW,206,5.4,6.9,91,0.00,,,0.00,WeatherDisplay:10.37,2014-01-17 04:29:00,
2014-01-17 04:34:00,43.7,41.2,28.91,South,169,3.6,4.6,91,0.00,,,0.00,WeatherDisplay:10.37,2014-01-17 04:34:00,
2014-01-17 04:39:00,43.5,41.1,28.91,SSE,160,4.5,5.8,91,0.00,,,0.00,WeatherDisplay:10.37,2014-01-17 04:39:00,
2014-01-17 04:44:00,43.5,41.1,28.91,SW,218,5.8,8.3,91,0.00,,,0.00,WeatherDisplay:10.37,2014-01-17 04:44:00,
2014-01-17 04:49:00,43.3,41.2,28.91,SW,217,3.1,5.8,92,0.00,,,0.00,WeatherDisplay:10.37,2014-01-17 04:49:00,
2014-01-17 04:54:00,43.3,41.2,28.88,South,188,3.6,5.8,92,0.00,,,0.00,WeatherDisplay:10.37,2014-01-17 04:54:00,
2014-01-17 04:59:00,43.3,41.2,28.88,SSE,160,5.8,10.4,92,0.00,,,0.00,WeatherDisplay:10.37,2014-01-17 04:59:00,
2014-01-17 05:01:00,43.3,41.2,28.88,SSW,195,4.0,5.8,92,0.00,,,0.00,WeatherDisplay:10.37,2014-01-17 05:01:00,
2014-01-17 05:02:00,43.3,41.2,28.88,South,182,5.4,8.1,92,0.00,,,0.00,WeatherDisplay:10.37,2014-01-17 05:02:00,
2014-01-17 05:07:00,43.2,41.0,28.91,South,186,2.2,5.8,92,0.00,,,0.00,WeatherDisplay:10.37,2014-01-17 05:07:00,
2014-01-17 05:13:00,43.2,41.0,28.91,South,170,4.0,8.3,92,0.00,,,0.00,WeatherDisplay:10.37,2014-01-17 05:13:00,
2014-01-17 05:18:00,43.2,41.0,28.91,SSW,211,5.4,5.8,92,0.00,,,0.00,WeatherDisplay:10.37,2014-01-17 05:18:00,
2014-01-17 05:23:00,43.2,41.0,28.91,South,180,5.4,9.2,92,0.00,,,0.00,WeatherDisplay:10.37,2014-01-17 05:23:00,
2014-01-17 05:28:00,43.2,40.7,28.91,SW,227,4.9,8.1,91,0.00,,,0.00,WeatherDisplay:10.37,2014-01-17 05:28:00,
2014-01-17 05:33:00,43.2,40.7,28.91,SSE,166,6.7,8.7,91,0.00,,,0.00,WeatherDisplay:10.37,2014-01-17 05:33:00,
2014-01-17 05:38:00,43.0,40.5,28.91,South,187,5.4,6.9,91,0.00,,,0.00,WeatherDisplay:10.37,2014-01-17 05:38:00,
2014-01-17 05:43:00,43.0,40.5,28.91,South,186,4.9,5.8,91,0.00,,,0.00,WeatherDisplay:10.37,2014-01-17 05:43:00,
2014-01-17 05:48:00,43.0,40.2,28.91,SSE,168,3.6,6.9,90,0.00,,,0.00,WeatherDisplay:10.37,2014-01-17 05:48:00,
2014-01-17 05:53:00,43.0,40.2,28.91,South,182,4.5,7.6,90,0.00,,,0.00,WeatherDisplay:10.37,2014-01-17 05:53:00,
2014-01-17 05:58:00,42.8,40.1,28.91,South,177,5.8,8.1,90,0.00,,,0.00,WeatherDisplay:10.37,2014-01-17 05:58:00,
2014-01-17 06:03:00,42.8,40.1,28.91,ESE,115,5.8,8.1,90,0.00,,,0.00,WeatherDisplay:10.37,2014-01-17 06:03:00,
2014-01-17 06:08:00,42.8,40.1,28.91,South,173,6.7,9.2,90,0.00,,,0.00,WeatherDisplay:10.37,2014-01-17 06:08:00,
2014-01-17 06:13:00,42.6,39.9,28.91,SSE,152,6.3,8.3,90,0.00,,,0.00,WeatherDisplay:10.37,2014-01-17 06:13:00,
2014-01-17 06:18:00,42.4,40.0,28.91,SSE,155,7.2,10.4,91,0.00,,,0.00,WeatherDisplay:10.37,2014-01-17 06:18:00,
2014-01-17 06:23:00,42.4,40.3,28.91,SSE,159,4.9,5.8,92,0.00,,,0.00,WeatherDisplay:10.37,2014-01-17 06:23:00,
2014-01-17 06:28:00,42.3,40.1,28.91,SSW,194,3.6,5.8,92,0.00,,,0.00,WeatherDisplay:10.37,2014-01-17 06:28:00,
2014-01-17 06:33:00,42.3,40.1,28.91,SSE,163,4.5,5.8,92,0.00,,,0.00,WeatherDisplay:10.37,2014-01-17 06:33:00,
2014-01-17 06:38:00,42.3,40.1,28.91,SSW,192,5.4,8.1,92,0.00,,,0.00,WeatherDisplay:10.37,2014-01-17 06:38:00,
2014-01-17 06:43:00,42.3,40.4,28.91,South,172,4.5,5.8,93,0.00,,,0.00,WeatherDisplay:10.37,2014-01-17 06:43:00,
2014-01-17 06:45:00,42.3,40.4,28.91,South,170,4.5,5.8,93,0.00,,,0.00,WeatherDisplay:10.37,2014-01-17 06:45:00,
2014-01-17 06:50:00,42.1,40.2,28.91,SSW,195,5.4,9.2,93,0.00,,,0.00,WeatherDisplay:10.37,2014-01-17 06:50:00,
2014-01-17 06:55:00,42.3,40.4,28.91,South,182,5.4,8.1,93,0.00,,,0.00,WeatherDisplay:10.37,2014-01-17 06:55:00,
2014-01-17 07:00:00,42.1,40.2,28.91,SSE,168,4.5,5.8,93,0.00,,,0.00,WeatherDisplay:10.37,2014-01-17 07:00:00,
2014-01-17 07:05:00,42.3,40.4,28.91,SSE,154,4.0,5.8,93,0.00,,,0.00,WeatherDisplay:10.37,2014-01-17 07:05:00,
2014-01-17 07:10:00,42.1,40.2,28.91,SSW,192,5.4,8.1,93,0.00,,,0.00,WeatherDisplay:10.37,2014-01-17 07:10:00,
2014-01-17 07:15:00,42.1,40.5,28.91,SW,215,3.1,4.0,94,0.00,,,0.00,WeatherDisplay:10.37,2014-01-17 07:15:00,
2014-01-17 07:20:00,42.1,40.8,28.91,South,187,4.5,8.1,95,0.04,RA,,0.04,WeatherDisplay:10.37,2014-01-17 07:20:00,
2014-01-17 07:25:00,42.1,40.8,28.91,SSW,212,3.6,3.6,95,0.04,RA,,0.04,WeatherDisplay:10.37,2014-01-17 07:25:00,
2014-01-17 07:30:00,42.1,40.8,28.91,SSE,162,4.0,4.0,95,0.04,,,0.04,WeatherDisplay:10.37,2014-01-17 07:30:00,
2014-01-17 07:35:00,42.1,40.8,28.91,South,186,4.0,9.2,95,0.04,,,0.04,WeatherDisplay:10.37,2014-01-17 07:35:00,
2014-01-17 07:40:00,42.1,40.8,28.94,SSE,168,2.7,3.6,95,0.04,,,0.04,WeatherDisplay:10.37,2014-01-17 07:40:00,
2014-01-17 07:45:00,42.1,40.8,28.94,South,174,0.0,4.0,95,0.04,,,0.04,WeatherDisplay:10.37,2014-01-17 07:45:00,
2014-01-17 07:50:00,42.1,41.0,28.94,South,182,0.0,3.5,96,0.04,,,0.04,WeatherDisplay:10.37,2014-01-17 07:50:00,
2014-01-17 07:55:00,42.1,41.0,28.94,SSW,208,2.2,4.6,96,0.04,,,0.04,WeatherDisplay:10.37,2014-01-17 07:55:00,
2014-01-17 08:00:00,42.1,41.0,28.94,SSW,193,2.2,4.6,96,0.04,,,0.04,WeatherDisplay:10.37,2014-01-17 08:00:00,
2014-01-17 08:05:00,42.1,41.0,28.94,South,179,0.0,4.0,96,0.04,,,0.04,WeatherDisplay:10.37,2014-01-17 08:05:00,
2014-01-17 08:10:00,41.9,40.8,28.94,South,184,0.0,3.5,96,0.04,,,0.04,WeatherDisplay:10.37,2014-01-17 08:10:00,
2014-01-17 08:15:00,41.9,40.8,28.94,SSW,195,4.5,5.8,96,0.04,,,0.04,WeatherDisplay:10.37,2014-01-17 08:15:00,
2014-01-17 08:20:00,41.9,40.8,28.94,SSE,167,0.0,5.4,96,0.00,,,0.04,WeatherDisplay:10.37,2014-01-17 08:20:00,
2014-01-17 08:25:00,41.9,40.8,28.94,South,170,3.1,4.6,96,0.00,,,0.04,WeatherDisplay:10.37,2014-01-17 08:25:00,
2014-01-17 08:30:00,41.9,40.8,28.94,SW,225,3.1,5.8,96,0.00,,,0.04,WeatherDisplay:10.37,2014-01-17 08:30:00,
2014-01-17 08:35:00,41.9,40.8,28.94,SSW,193,0.0,3.5,96,0.00,,,0.04,WeatherDisplay:10.37,2014-01-17 08:35:00,
2014-01-17 08:40:00,41.9,40.8,28.94,South,178,3.1,4.6,96,0.00,,,0.04,WeatherDisplay:10.37,2014-01-17 08:40:00,
2014-01-17 08:45:00,42.1,41.0,28.94,SSW,194,2.7,5.8,96,0.00,,,0.04,WeatherDisplay:10.37,2014-01-17 08:45:00,
2014-01-17 08:50:00,42.1,41.0,28.94,South,191,0.0,0.0,96,0.00,,,0.04,WeatherDisplay:10.37,2014-01-17 08:50:00,
2014-01-17 08:55:00,42.1,41.0,28.97,South,172,3.6,4.6,96,0.00,,,0.04,WeatherDisplay:10.37,2014-01-17 08:55:00,
2014-01-17 09:00:00,42.1,41.0,28.97,SSW,194,3.6,5.8,96,0.00,,,0.04,WeatherDisplay:10.37,2014-01-17 09:00:00,
2014-01-17 09:05:00,42.1,41.3,28.97,South,188,0.0,4.5,97,0.00,,,0.04,WeatherDisplay:10.37,2014-01-17 09:05:00,
2014-01-17 09:10:00,41.9,41.1,28.97,SSW,206,0.0,5.8,97,0.00,,,0.04,WeatherDisplay:10.37,2014-01-17 09:10:00,
2014-01-17 09:15:00,42.1,41.3,28.97,SSW,200,2.7,5.8,97,0.00,,,0.04,WeatherDisplay:10.37,2014-01-17 09:15:00,
2014-01-17 09:20:00,42.3,41.5,28.97,South,185,0.0,4.0,97,0.00,,,0.04,WeatherDisplay:10.37,2014-01-17 09:20:00,
2014-01-17 09:25:00,42.3,41.5,28.97,SSW,192,0.0,0.0,97,0.00,,,0.04,WeatherDisplay:10.37,2014-01-17 09:25:00,
2014-01-17 09:30:00,42.3,41.5,28.97,SSW,205,2.2,4.6,97,0.00,,,0.04,WeatherDisplay:10.37,2014-01-17 09:30:00,
2014-01-17 09:35:00,42.4,41.6,28.97,SSE,156,0.0,3.6,97,0.00,,,0.04,WeatherDisplay:10.37,2014-01-17 09:35:00,
2014-01-17 09:40:00,42.4,41.6,28.97,SW,214,3.1,5.8,97,0.00,,,0.04,WeatherDisplay:10.37,2014-01-17 09:40:00,
2014-01-17 09:45:00,42.4,41.6,28.97,SSW,194,2.7,3.5,97,0.00,,,0.04,WeatherDisplay:10.37,2014-01-17 09:45:00,
2014-01-17 09:50:00,42.6,41.8,28.97,South,184,0.0,4.9,97,0.00,,,0.04,WeatherDisplay:10.37,2014-01-17 09:50:00,
2014-01-17 09:55:00,42.8,41.7,28.97,South,190,2.2,4.6,96,0.00,,,0.04,WeatherDisplay:10.37,2014-01-17 09:55:00,
2014-01-17 10:00:00,42.8,42.0,28.97,SW,216,3.1,5.8,97,0.00,,,0.04,WeatherDisplay:10.37,2014-01-17 10:00:00,
2014-01-17 10:05:00,43.0,41.9,28.97,South,182,0.0,3.5,96,0.00,,,0.04,WeatherDisplay:10.37,2014-01-17 10:05:00,
2014-01-17 10:10:00,43.2,42.1,28.97,SSW,212,4.5,5.8,96,0.00,,,0.04,WeatherDisplay:10.37,2014-01-17 10:10:00,
2014-01-17 10:15:00,43.3,42.3,28.97,SSW,201,3.6,5.8,96,0.00,,,0.04,WeatherDisplay:10.37,2014-01-17 10:15:00,
2014-01-17 10:20:00,43.5,42.5,28.97,South,189,5.4,8.1,96,0.00,,,0.04,WeatherDisplay:10.37,2014-01-17 10:20:00,
2014-01-17 10:25:00,43.7,42.6,28.97,SW,216,5.8,5.8,96,0.00,,,0.04,WeatherDisplay:10.37,2014-01-17 10:25:00,
2014-01-17 10:30:00,43.7,42.4,28.97,South,190,6.7,8.1,95,0.00,,,0.04,WeatherDisplay:10.37,2014-01-17 10:30:00,
2014-01-17 10:35:00,43.7,42.1,28.97,South,186,6.3,8.1,94,0.00,,,0.04,WeatherDisplay:10.37,2014-01-17 10:35:00,
2014-01-17 10:40:00,43.7,42.1,29.00,SSW,197,6.3,8.1,94,0.00,,,0.04,WeatherDisplay:10.37,2014-01-17 10:40:00,
2014-01-17 10:45:00,43.7,42.1,29.00,South,180,5.8,5.8,94,0.00,,,0.04,WeatherDisplay:10.37,2014-01-17 10:45:00,
2014-01-17 10:50:00,43.7,42.1,29.00,South,170,4.0,4.6,94,0.00,,,0.04,WeatherDisplay:10.37,2014-01-17 10:50:00,
2014-01-17 10:55:00,43.7,41.8,29.00,South,178,5.4,5.8,93,0.00,,,0.04,WeatherDisplay:10.37,2014-01-17 10:55:00,
2014-01-17 11:00:00,43.7,41.8,29.00,SSW,193,5.8,8.1,93,0.00,,,0.04,WeatherDisplay:10.37,2014-01-17 11:00:00,
2014-01-17 11:05:00,43.7,41.8,29.00,South,180,6.7,9.2,93,0.00,,,0.04,WeatherDisplay:10.37,2014-01-17 11:05:00,
2014-01-17 11:10:00,43.9,42.0,29.00,SSE,168,6.3,8.1,93,0.00,,,0.04,WeatherDisplay:10.37,2014-01-17 11:10:00,
2014-01-17 11:15:00,43.9,41.7,29.00,SSW,196,4.5,7.6,92,0.00,,,0.04,WeatherDisplay:10.37,2014-01-17 11:15:00,
2014-01-17 11:20:00,44.1,41.9,29.00,South,179,6.3,8.1,92,0.00,,,0.04,WeatherDisplay:10.37,2014-01-17 11:20:00,
2014-01-17 11:25:00,44.1,41.6,29.00,South,179,7.2,8.1,91,0.00,,,0.04,WeatherDisplay:10.37,2014-01-17 11:25:00,
2014-01-17 11:30:00,44.2,41.5,29.00,SSE,154,5.4,8.3,90,0.00,,,0.04,WeatherDisplay:10.37,2014-01-17 11:30:00,
2014-01-17 11:35:00,44.1,41.0,29.00,South,191,8.3,11.5,89,0.00,,,0.04,WeatherDisplay:10.37,2014-01-17 11:35:00,
2014-01-17 11:40:00,44.1,40.7,29.00,SSW,206,5.8,8.1,88,0.00,,,0.04,WeatherDisplay:10.37,2014-01-17 11:40:00,
2014-01-17 11:45:00,44.1,41.0,29.00,SW,216,6.3,8.1,89,0.00,,,0.04,WeatherDisplay:10.37,2014-01-17 11:45:00,
2014-01-17 11:50:00,44.1,41.3,29.00,South,177,5.8,5.8,90,0.00,,,0.04,WeatherDisplay:10.37,2014-01-17 11:50:00,
2014-01-17 11:55:00,44.1,41.3,29.00,SSW,195,5.4,5.8,90,0.00,,,0.04,WeatherDisplay:10.37,2014-01-17 11:55:00,
2014-01-17 12:00:00,44.1,41.6,29.00,SW,222,5.4,8.1,91,0.00,,,0.04,WeatherDisplay:10.37,2014-01-17 12:00:00,
2014-01-17 12:05:00,44.2,41.5,29.00,South,189,5.4,8.1,90,0.00,,,0.04,WeatherDisplay:10.37,2014-01-17 12:05:00,
2014-01-17 12:10:00,44.2,41.5,29.00,SSW,205,6.7,8.1,90,0.00,,,0.04,WeatherDisplay:10.37,2014-01-17 12:10:00,
2014-01-17 12:15:00,44.2,41.5,29.00,SSW,194,4.9,5.8,90,0.00,,,0.04,WeatherDisplay:10.37,2014-01-17 12:15:00,
2014-01-17 12:20:00,44.4,41.7,29.00,SW,221,4.0,5.8,90,0.00,,,0.04,WeatherDisplay:10.37,2014-01-17 12:20:00,
2014-01-17 12:25:00,44.4,42.0,29.00,SSW,194,5.8,8.1,91,0.00,,,0.04,WeatherDisplay:10.37,2014-01-17 12:25:00,
2014-01-17 12:30:00,44.4,42.0,29.00,SSW,200,6.7,8.1,91,0.00,,,0.04,WeatherDisplay:10.37,2014-01-17 12:30:00,
2014-01-17 12:35:00,44.4,41.7,29.00,SSE,159,6.3,8.1,90,0.00,,,0.04,WeatherDisplay:10.37,2014-01-17 12:35:00,
2014-01-17 12:40:00,44.4,41.7,29.00,SSW,194,4.9,6.9,90,0.00,,,0.04,WeatherDisplay:10.37,2014-01-17 12:40:00,
2014-01-17 12:45:00,44.4,41.7,29.00,ESE,122,6.7,8.7,90,0.00,,,0.04,WeatherDisplay:10.37,2014-01-17 12:45:00,
2014-01-17 12:50:00,44.4,41.4,29.00,South,179,4.5,4.5,89,0.00,,,0.04,WeatherDisplay:10.37,2014-01-17 12:50:00,
2014-01-17 12:55:00,44.4,41.4,29.00,SSW,199,5.8,5.8,89,0.00,,,0.04,WeatherDisplay:10.37,2014-01-17 12:55:00,
2014-01-17 13:00:00,44.4,41.4,29.00,SW,219,7.2,8.1,89,0.00,,,0.04,WeatherDisplay:10.37,2014-01-17 13:00:00,
2014-01-17 13:05:00,44.2,41.5,29.00,SW,234,6.3,8.1,90,0.04,RA,,0.08,WeatherDisplay:10.37,2014-01-17 13:05:00,
2014-01-17 13:10:00,43.9,40.8,29.03,SW,219,5.8,8.1,89,0.04,RA,,0.08,WeatherDisplay:10.37,2014-01-17 13:10:00,
2014-01-17 13:15:00,43.7,40.4,29.03,South,180,3.6,5.8,88,0.04,,,0.08,WeatherDisplay:10.37,2014-01-17 13:15:00,
2014-01-17 13:20:00,43.7,40.7,29.03,SSW,193,2.2,4.6,89,0.04,,,0.08,WeatherDisplay:10.37,2014-01-17 13:20:00,
2014-01-17 13:25:00,43.9,40.8,29.03,South,178,0.0,3.5,89,0.04,,,0.08,WeatherDisplay:10.37,2014-01-17 13:25:00,
2014-01-17 13:30:00,43.9,41.1,29.03,SW,226,3.1,5.8,90,0.04,,,0.08,WeatherDisplay:10.37,2014-01-17 13:30:00,
2014-01-17 13:35:00,43.9,41.1,29.03,South,185,2.2,3.5,90,0.04,,,0.08,WeatherDisplay:10.37,2014-01-17 13:35:00,
2014-01-17 13:40:00,43.9,41.4,29.03,SW,225,3.1,8.1,91,0.04,,,0.08,WeatherDisplay:10.37,2014-01-17 13:40:00,
2014-01-17 13:45:00,43.9,41.4,29.03,SSW,210,4.0,5.8,91,0.04,,,0.08,WeatherDisplay:10.37,2014-01-17 13:45:00,
2014-01-17 13:50:00,43.9,41.4,29.03,SW,230,3.6,5.8,91,0.04,,,0.08,WeatherDisplay:10.37,2014-01-17 13:50:00,
2014-01-17 13:55:00,43.7,41.5,29.03,South,190,6.3,11.5,92,0.04,,,0.08,WeatherDisplay:10.37,2014-01-17 13:55:00,
2014-01-17 14:00:00,43.7,41.2,29.03,SW,223,2.7,4.6,91,0.04,,,0.08,WeatherDisplay:10.37,2014-01-17 14:00:00,
2014-01-17 14:05:00,43.7,41.0,29.03,South,187,2.2,3.5,90,0.00,,,0.08,WeatherDisplay:10.37,2014-01-17 14:05:00,
2014-01-17 14:10:00,43.9,41.1,29.03,SSW,196,0.0,3.6,90,0.00,,,0.08,WeatherDisplay:10.37,2014-01-17 14:10:00,
2014-01-17 14:15:00,44.1,41.6,29.03,South,181,0.0,4.6,91,0.00,,,0.08,WeatherDisplay:10.37,2014-01-17 14:15:00,
2014-01-17 14:20:00,44.2,41.8,29.03,SW,217,3.1,3.5,91,0.00,,,0.08,WeatherDisplay:10.37,2014-01-17 14:20:00,
2014-01-17 14:25:00,44.6,42.1,29.03,SSW,209,0.0,3.5,91,0.00,,,0.08,WeatherDisplay:10.37,2014-01-17 14:25:00,
2014-01-17 14:30:00,44.6,41.8,29.03,SSW,205,4.9,9.2,90,0.00,,,0.08,WeatherDisplay:10.37,2014-01-17 14:30:00,
2014-01-17 14:35:00,44.8,41.7,29.03,SSW,210,6.7,9.2,89,0.00,,,0.08,WeatherDisplay:10.37,2014-01-17 14:35:00,
2014-01-17 14:40:00,44.8,41.4,29.03,SW,235,6.3,8.1,88,0.00,,,0.08,WeatherDisplay:10.37,2014-01-17 14:40:00,
2014-01-17 14:45:00,44.8,41.1,29.03,SSW,211,7.2,8.7,87,0.00,,,0.08,WeatherDisplay:10.37,2014-01-17 14:45:00,
2014-01-17 14:50:00,44.8,40.5,29.03,SSW,201,6.7,10.4,85,0.00,,,0.08,WeatherDisplay:10.37,2014-01-17 14:50:00,
2014-01-17 14:55:00,44.8,40.5,29.06,South,179,5.4,8.1,85,0.00,,,0.08,WeatherDisplay:10.37,2014-01-17 14:55:00,
2014-01-17 15:00:00,44.8,40.5,29.06,SW,216,6.7,8.1,85,0.00,,,0.08,WeatherDisplay:10.37,2014-01-17 15:00:00,
2014-01-17 15:05:00,44.8,40.5,29.06,SSW,193,6.3,8.1,85,0.00,,,0.08,WeatherDisplay:10.37,2014-01-17 15:05:00,
2014-01-17 15:10:00,44.8,40.2,29.06,South,180,4.5,5.8,84,0.00,,,0.08,WeatherDisplay:10.37,2014-01-17 15:10:00,
2014-01-17 15:15:00,44.8,39.9,29.06,SSW,202,6.7,9.2,83,0.00,,,0.08,WeatherDisplay:10.37,2014-01-17 15:15:00,
2014-01-17 15:20:00,44.6,39.8,29.06,South,169,6.3,8.1,83,0.00,,,0.08,WeatherDisplay:10.37,2014-01-17 15:20:00,
2014-01-17 15:25:00,44.6,39.4,29.06,SW,233,5.8,8.1,82,0.00,,,0.08,WeatherDisplay:10.37,2014-01-17 15:25:00,
2014-01-17 15:30:00,44.6,39.8,29.06,SSW,205,4.0,5.8,83,0.00,,,0.08,WeatherDisplay:10.37,2014-01-17 15:30:00,
2014-01-17 15:35:00,44.6,39.8,29.06,SSE,164,4.9,6.9,83,0.00,,,0.08,WeatherDisplay:10.37,2014-01-17 15:35:00,
2014-01-17 15:40:00,44.4,40.2,29.06,South,180,4.9,5.8,85,0.00,,,0.08,WeatherDisplay:10.37,2014-01-17 15:40:00,
2014-01-17 15:45:00,44.2,40.0,29.06,South,172,4.5,6.3,85,0.00,,,0.08,WeatherDisplay:10.37,2014-01-17 15:45:00,
2014-01-17 15:50:00,44.2,40.0,29.06,South,186,5.4,6.3,85,0.00,,,0.08,WeatherDisplay:10.37,2014-01-17 15:50:00,
2014-01-17 15:55:00,44.2,40.3,29.06,South,191,5.4,6.9,86,0.00,,,0.08,WeatherDisplay:10.37,2014-01-17 15:55:00,
2014-01-17 16:00:00,44.2,40.3,29.06,South,176,6.7,9.2,86,0.00,,,0.08,WeatherDisplay:10.37,2014-01-17 16:00:00,
2014-01-17 16:05:00,44.2,40.0,29.06,South,179,4.9,5.8,85,0.00,,,0.08,WeatherDisplay:10.37,2014-01-17 16:05:00,
2014-01-17 16:10:00,44.2,39.7,29.06,South,183,7.2,8.1,84,0.00,,,0.08,WeatherDisplay:10.37,2014-01-17 16:10:00,
2014-01-17 16:15:00,44.2,39.7,29.06,SSW,213,4.5,6.7,84,0.00,,,0.08,WeatherDisplay:10.37,2014-01-17 16:15:00,
2014-01-17 16:20:00,44.1,39.8,29.06,NW,312,2.7,4.6,85,0.00,,,0.08,WeatherDisplay:10.37,2014-01-17 16:20:00,
2014-01-17 16:25:00,43.7,39.2,29.09,West,261,2.2,6.3,84,0.00,,,0.08,WeatherDisplay:10.37,2014-01-17 16:25:00,
2014-01-17 16:30:00,43.3,39.1,29.09,WSW,244,0.0,3.5,85,0.00,,,0.08,WeatherDisplay:10.37,2014-01-17 16:30:00,
2014-01-17 16:35:00,43.0,39.1,29.09,SW,222,0.0,0.0,86,0.00,,,0.08,WeatherDisplay:10.37,2014-01-17 16:35:00,
2014-01-17 16:40:00,43.0,39.1,29.09,SW,223,0.0,0.0,86,0.00,,,0.08,WeatherDisplay:10.37,2014-01-17 16:40:00,
2014-01-17 16:45:00,42.8,39.2,29.09,SW,223,0.0,0.0,87,0.00,,,0.08,WeatherDisplay:10.37,2014-01-17 16:45:00,
2014-01-17 16:50:00,42.8,39.2,29.09,SW,223,0.0,0.0,87,0.00,,,0.08,WeatherDisplay:10.37,2014-01-17 16:50:00,
2014-01-17 16:55:00,42.8,39.5,29.09,SSW,209,0.0,0.0,88,0.00,,,0.08,WeatherDisplay:10.37,2014-01-17 16:55:00,
2014-01-17 17:00:00,42.8,39.8,29.09,SW,227,0.0,3.5,89,0.00,,,0.08,WeatherDisplay:10.37,2014-01-17 17:00:00,
2014-01-17 17:05:00,42.8,39.8,29.09,SW,228,0.0,0.0,89,0.00,,,0.08,WeatherDisplay:10.37,2014-01-17 17:05:00,
2014-01-17 17:10:00,42.8,39.8,29.09,WSW,241,0.0,0.0,89,0.00,,,0.08,WeatherDisplay:10.37,2014-01-17 17:10:00,
2014-01-17 17:15:00,42.8,40.1,29.09,WSW,242,0.0,0.0,90,0.00,,,0.08,WeatherDisplay:10.37,2014-01-17 17:15:00,
2014-01-17 17:20:00,42.8,40.4,29.09,SW,233,0.0,0.0,91,0.00,,,0.08,WeatherDisplay:10.37,2014-01-17 17:20:00,
2014-01-17 17:25:00,42.8,40.4,29.09,SW,217,0.0,0.0,91,0.00,,,0.08,WeatherDisplay:10.37,2014-01-17 17:25:00,
2014-01-17 17:30:00,42.8,40.4,29.09,SSW,205,0.0,0.0,91,0.00,,,0.08,WeatherDisplay:10.37,2014-01-17 17:30:00,
2014-01-17 17:35:00,42.8,40.4,29.09,SSW,205,0.0,0.0,91,0.00,,,0.08,WeatherDisplay:10.37,2014-01-17 17:35:00,
2014-01-17 17:40:00,42.8,40.4,29.12,SW,235,0.0,0.0,91,0.00,,,0.08,WeatherDisplay:10.37,2014-01-17 17:40:00,
2014-01-17 17:45:00,42.6,40.5,29.12,SW,220,0.0,0.0,92,0.00,,,0.08,WeatherDisplay:10.37,2014-01-17 17:45:00,
2014-01-17 17:50:00,42.6,40.5,29.12,SW,231,0.0,0.0,92,0.00,,,0.08,WeatherDisplay:10.37,2014-01-17 17:50:00,
2014-01-17 17:55:00,42.6,40.5,29.12,South,186,0.0,0.0,92,0.00,,,0.08,WeatherDisplay:10.37,2014-01-17 17:55:00,
2014-01-17 18:00:00,42.6,40.5,29.12,SSW,198,0.0,0.0,92,0.00,,,0.08,WeatherDisplay:10.37,2014-01-17 18:00:00,
2014-01-17 18:05:00,42.8,40.4,29.12,SSW,200,0.0,0.0,91,0.00,,,0.08,WeatherDisplay:10.37,2014-01-17 18:05:00,
2014-01-17 18:10:00,42.8,40.4,29.12,South,190,0.0,0.0,91,0.00,,,0.08,WeatherDisplay:10.37,2014-01-17 18:10:00,
2014-01-17 18:15:00,42.8,40.4,29.12,South,187,0.0,0.0,91,0.00,,,0.08,WeatherDisplay:10.37,2014-01-17 18:15:00,
2014-01-17 18:20:00,42.8,40.4,29.12,SSW,202,0.0,0.0,91,0.00,,,0.08,WeatherDisplay:10.37,2014-01-17 18:20:00,
2014-01-17 18:25:00,42.8,40.4,29.12,SSW,205,0.0,0.0,91,0.00,,,0.08,WeatherDisplay:10.37,2014-01-17 18:25:00,
2014-01-17 18:30:00,42.8,40.4,29.12,South,180,0.0,0.0,91,0.00,,,0.08,WeatherDisplay:10.37,2014-01-17 18:30:00,
2014-01-17 18:35:00,42.8,40.1,29.12,South,172,0.0,0.0,90,0.00,,,0.08,WeatherDisplay:10.37,2014-01-17 18:35:00,
2014-01-17 18:40:00,42.8,40.1,29.12,SSE,164,0.0,0.0,90,0.00,,,0.08,WeatherDisplay:10.37,2014-01-17 18:40:00,
2014-01-17 18:45:00,42.6,39.9,29.12,SSW,202,0.0,0.0,90,0.00,,,0.08,WeatherDisplay:10.37,2014-01-17 18:45:00,
2014-01-17 18:50:00,42.6,39.6,29.12,SSW,195,0.0,0.0,89,0.00,,,0.08,WeatherDisplay:10.37,2014-01-17 18:50:00,
2014-01-17 18:55:00,42.6,39.6,29.12,SSW,209,0.0,0.0,89,0.00,,,0.08,WeatherDisplay:10.37,2014-01-17 18:55:00,
2014-01-17 19:00:00,42.6,39.6,29.12,South,182,0.0,0.0,89,0.00,,,0.08,WeatherDisplay:10.37,2014-01-17 19:00:00,
2014-01-17 19:05:00,42.4,39.1,29.12,SSW,202,0.0,0.0,88,0.00,,,0.08,WeatherDisplay:10.37,2014-01-17 19:05:00,
2014-01-17 19:10:00,42.4,39.1,29.15,South,188,0.0,0.0,88,0.00,,,0.08,WeatherDisplay:10.37,2014-01-17 19:10:00,
2014-01-17 19:15:00,42.4,39.1,29.15,South,191,0.0,0.0,88,0.00,,,0.08,WeatherDisplay:10.37,2014-01-17 19:15:00,
2014-01-17 19:20:00,42.6,39.3,29.15,SSW,196,0.0,0.0,88,0.00,,,0.08,WeatherDisplay:10.37,2014-01-17 19:20:00,
2014-01-17 19:25:00,42.6,39.0,29.15,South,177,0.0,0.0,87,0.00,,,0.08,WeatherDisplay:10.37,2014-01-17 19:25:00,
2014-01-17 19:30:00,42.8,39.2,29.15,South,190,0.0,0.0,87,0.00,,,0.08,WeatherDisplay:10.37,2014-01-17 19:30:00,
2014-01-17 19:35:00,42.8,39.2,29.15,SSW,196,0.0,0.0,87,0.00,,,0.08,WeatherDisplay:10.37,2014-01-17 19:35:00,
2014-01-17 19:40:00,42.6,39.0,29.15,SSW,194,0.0,0.0,87,0.00,,,0.08,WeatherDisplay:10.37,2014-01-17 19:40:00,
2014-01-17 19:45:00,42.8,39.2,29.15,South,191,0.0,0.0,87,0.00,,,0.08,WeatherDisplay:10.37,2014-01-17 19:45:00,
2014-01-17 19:50:00,42.8,39.2,29.15,South,188,0.0,0.0,87,0.00,,,0.08,WeatherDisplay:10.37,2014-01-17 19:50:00,
2014-01-17 19:55:00,42.8,39.2,29.15,SSW,194,0.0,0.0,87,0.00,,,0.08,WeatherDisplay:10.37,2014-01-17 19:55:00,
2014-01-17 20:00:00,43.0,39.4,29.15,SSW,194,0.0,0.0,87,0.00,,,0.08,WeatherDisplay:10.37,2014-01-17 20:00:00,
2014-01-17 20:05:00,43.0,39.4,29.15,South,189,0.0,0.0,87,0.00,,,0.08,WeatherDisplay:10.37,2014-01-17 20:05:00,
2014-01-17 20:10:00,43.0,39.1,29.15,SSW,201,0.0,0.0,86,0.00,,,0.08,WeatherDisplay:10.37,2014-01-17 20:10:00,
2014-01-17 20:15:00,43.0,39.1,29.15,South,188,0.0,0.0,86,0.00,,,0.08,WeatherDisplay:10.37,2014-01-17 20:15:00,
2014-01-17 20:20:00,43.0,39.1,29.15,SSW,200,0.0,0.0,86,0.00,,,0.08,WeatherDisplay:10.37,2014-01-17 20:20:00,
2014-01-17 20:25:00,43.0,39.1,29.15,South,182,0.0,0.0,86,0.00,,,0.08,WeatherDisplay:10.37,2014-01-17 20:25:00,
2014-01-17 20:30:00,43.2,39.3,29.15,South,185,0.0,0.0,86,0.00,,,0.08,WeatherDisplay:10.37,2014-01-17 20:30:00,
2014-01-17 20:35:00,43.2,39.3,29.15,South,176,0.0,3.5,86,0.00,,,0.08,WeatherDisplay:10.37,2014-01-17 20:35:00,
2014-01-17 20:40:00,43.2,39.3,29.18,SSW,205,0.0,2.3,86,0.00,,,0.08,WeatherDisplay:10.37,2014-01-17 20:40:00,
2014-01-17 20:45:00,43.2,39.3,29.18,SSW,193,4.9,5.8,86,0.00,,,0.08,WeatherDisplay:10.37,2014-01-17 20:45:00,
2014-01-17 20:50:00,43.2,39.3,29.18,SSW,204,4.5,5.8,86,0.00,,,0.08,WeatherDisplay:10.37,2014-01-17 20:50:00,
2014-01-17 20:55:00,43.2,39.3,29.18,South,189,4.5,5.8,86,0.00,,,0.08,WeatherDisplay:10.37,2014-01-17 20:55:00,
2014-01-17 21:00:00,43.3,39.1,29.18,South,169,5.4,5.8,85,0.00,,,0.08,WeatherDisplay:10.37,2014-01-17 21:00:00,
2014-01-17 21:05:00,43.3,39.1,29.18,South,187,5.4,5.8,85,0.00,,,0.08,WeatherDisplay:10.37,2014-01-17 21:05:00,
2014-01-17 21:10:00,43.3,38.8,29.18,South,176,3.1,4.6,84,0.00,,,0.08,WeatherDisplay:10.37,2014-01-17 21:10:00,
2014-01-17 21:15:00,43.3,38.8,29.18,South,186,2.2,5.8,84,0.00,,,0.08,WeatherDisplay:10.37,2014-01-17 21:15:00,
2014-01-17 21:20:00,43.3,38.8,29.18,South,173,2.7,3.5,84,0.00,,,0.08,WeatherDisplay:10.37,2014-01-17 21:20:00,
2014-01-17 21:25:00,43.3,39.1,29.15,SSE,164,3.1,4.6,85,0.00,,,0.08,WeatherDisplay:10.37,2014-01-17 21:25:00,
2014-01-17 21:30:00,43.2,39.0,29.15,SSE,166,2.2,2.7,85,0.00,,,0.08,WeatherDisplay:10.37,2014-01-17 21:30:00,
2014-01-17 21:35:00,43.2,39.0,29.15,SSE,163,2.7,4.0,85,0.00,,,0.08,WeatherDisplay:10.37,2014-01-17 21:35:00,
2014-01-17 21:40:00,43.2,39.0,29.18,South,190,2.7,4.0,85,0.00,,,0.08,WeatherDisplay:10.37,2014-01-17 21:40:00,
2014-01-17 21:45:00,43.0,38.8,29.18,SSE,166,0.0,3.6,85,0.00,,,0.08,WeatherDisplay:10.37,2014-01-17 21:45:00,
2014-01-17 21:50:00,43.0,38.8,29.18,SSE,161,2.7,3.5,85,0.00,,,0.08,WeatherDisplay:10.37,2014-01-17 21:50:00,
2014-01-17 21:55:00,43.0,38.8,29.18,South,184,2.2,3.5,85,0.00,,,0.08,WeatherDisplay:10.37,2014-01-17 21:55:00,
2014-01-17 22:00:00,43.0,38.5,29.18,SSE,152,0.0,2.3,84,0.00,,,0.08,WeatherDisplay:10.37,2014-01-17 22:00:00,
2014-01-17 22:05:00,43.0,38.5,29.18,South,179,0.0,3.5,84,0.00,,,0.08,WeatherDisplay:10.37,2014-01-17 22:05:00,
2014-01-17 22:10:00,42.8,38.3,29.18,South,189,2.7,4.6,84,0.00,,,0.08,WeatherDisplay:10.37,2014-01-17 22:10:00,
2014-01-17 22:15:00,42.8,38.3,29.18,SSE,167,2.2,5.4,84,0.00,,,0.08,WeatherDisplay:10.37,2014-01-17 22:15:00,
2014-01-17 22:20:00,42.8,38.3,29.18,South,182,2.2,4.6,84,0.00,,,0.08,WeatherDisplay:10.37,2014-01-17 22:20:00,
2014-01-17 22:25:00,42.8,38.3,29.18,SSW,194,0.0,3.5,84,0.00,,,0.08,WeatherDisplay:10.37,2014-01-17 22:25:00,
2014-01-17 22:30:00,42.6,38.4,29.18,South,182,3.1,4.6,85,0.00,,,0.08,WeatherDisplay:10.37,2014-01-17 22:30:00,
2014-01-17 22:35:00,42.6,38.4,29.18,South,187,3.1,3.5,85,0.00,,,0.08,WeatherDisplay:10.37,2014-01-17 22:35:00,
2014-01-17 22:40:00,42.4,38.2,29.18,South,187,0.0,3.5,85,0.00,,,0.08,WeatherDisplay:10.37,2014-01-17 22:40:00,
2014-01-17 22:45:00,42.4,38.2,29.18,SSW,205,2.2,3.5,85,0.00,,,0.08,WeatherDisplay:10.37,2014-01-17 22:45:00,
2014-01-17 22:50:00,42.4,38.2,29.18,SW,221,2.7,3.5,85,0.00,,,0.08,WeatherDisplay:10.37,2014-01-17 22:50:00,
2014-01-17 22:55:00,42.3,38.1,29.18,SSW,196,3.1,5.8,85,0.00,,,0.08,WeatherDisplay:10.37,2014-01-17 22:55:00,
2014-01-17 23:00:00,42.3,38.1,29.18,South,173,3.1,3.5,85,0.00,,,0.08,WeatherDisplay:10.37,2014-01-17 23:00:00,
2014-01-17 23:05:00,42.1,37.9,29.18,SSW,201,3.6,5.8,85,0.00,,,0.08,WeatherDisplay:10.37,2014-01-17 23:05:00,
2014-01-17 23:10:00,42.1,37.9,29.18,South,188,3.6,4.6,85,0.00,,,0.08,WeatherDisplay:10.37,2014-01-17 23:10:00,
2014-01-17 23:15:00,42.1,37.9,29.18,South,185,2.7,4.6,85,0.00,,,0.08,WeatherDisplay:10.37,2014-01-17 23:15:00,
2014-01-17 23:20:00,42.1,37.9,29.18,South,182,2.7,3.5,85,0.00,,,0.08,WeatherDisplay:10.37,2014-01-17 23:20:00,
2014-01-17 23:25:00,41.9,38.0,29.18,SSW,200,2.7,3.5,86,0.00,,,0.08,WeatherDisplay:10.37,2014-01-17 23:25:00,
2014-01-17 23:30:00,41.7,37.8,29.18,SSW,193,0.0,3.6,86,0.00,,,0.08,WeatherDisplay:10.37,2014-01-17 23:30:00,
2014-01-17 23:35:00,41.7,37.8,29.18,SSE,166,2.2,3.5,86,0.00,,,0.08,WeatherDisplay:10.37,2014-01-17 23:35:00,
2014-01-17 23:40:00,41.7,37.8,29.18,South,169,2.7,4.6,86,0.00,,,0.08,WeatherDisplay:10.37,2014-01-17 23:40:00,
2014-01-17 23:45:00,41.7,38.1,29.18,South,183,2.2,2.3,87,0.00,,,0.08,WeatherDisplay:10.37,2014-01-17 23:45:00,
2014-01-17 23:50:00,41.9,38.3,29.18,South,182,3.1,3.5,87,0.00,,,0.08,WeatherDisplay:10.37,2014-01-17 23:50:00,
2014-01-17 23:55:00,41.9,38.3,29.18,South,190,4.5,4.6,87,0.00,,,0.08,WeatherDisplay:10.37,2014-01-17 23:55:00,